Time;durP1;ratioP1;P1;durP2;ratioP2;P2;SDS_P1;SDS_P2;PMS_P1;PMS_P2;Temp;Humidity;BMP_temperature;BMP_pressure;BME280_temperature;BME280_humidity;BME280_pressure;Samples;Min_cycle;Max_cycle;Signal;HPM_P1;HPM_P2
2023/03/15 00:04:15;;;;;;;2.93;2.07;;;5.20;95.70;;;;;;20911229;28;20266;-76
2023/03/15 00:14:17;;;;;;;5.87;2.30;;;5.30;96.20;;;;;;20910618;28;20359;-76
2023/03/15 00:24:19;;;;;;;6.90;2.40;;;;;;;;;;20917191;28;20636;-76
2023/03/15 00:34:24;;;;;;;3.13;1.67;;;5.20;96.80;;;;;;20925241;28;20258;-76
2023/03/15 00:44:26;;;;;;;6.27;2.40;;;5.20;96.60;;;;;;20924788;28;20234;-75
2023/03/15 00:54:28;;;;;;;6.40;2.93;;;5.20;96.60;;;;;;20924234;28;20224;-76
2023/03/15 01:04:30;;;;;;;7.93;2.70;;;5.00;96.70;;;;;;20923394;28;20245;-77
2023/03/15 01:14:34;;;;;;;5.27;2.50;;;4.90;97.00;;;;;;20922520;28;20285;-78
2023/03/15 01:24:36;;;;;;;8.07;2.90;;;4.80;97.10;;;;;;20922204;28;20270;-78
2023/03/15 01:34:38;;;;;;;5.43;3.00;;;4.80;97.30;;;;;;20920599;28;20605;-76
2023/03/15 01:45:00;;;;;;;9.00;3.40;;;4.60;97.40;;;;;;20920218;28;20211;-76
2023/03/15 01:55:12;;;;;;;5.03;3.37;;;4.60;97.50;;;;;;20919961;28;20239;-78
2023/03/15 02:05:19;;;;;;;6.80;4.03;;;4.50;97.60;;;;;;20918984;28;20208;-78
2023/03/15 02:15:21;;;;;;;6.30;3.97;;;4.40;97.80;;;;;;20921710;28;20235;-75
2023/03/15 02:25:37;;;;;;;14.03;4.23;;;4.30;97.90;;;;;;20930139;28;20666;-75
2023/03/15 02:35:38;;;;;;;13.23;5.17;;;4.30;98.10;;;;;;20917755;28;20301;-77
2023/03/15 02:45:41;;;;;;;9.73;5.17;;;;;;;;;;20914930;28;20258;-78
2023/03/15 02:55:42;;;;;;;14.43;5.70;;;4.10;98.40;;;;;;20915140;28;20289;-79
2023/03/15 03:05:44;;;;;;;12.03;5.10;;;4.10;98.40;;;;;;20915898;28;20208;-80
2023/03/15 03:15:49;;;;;;;11.80;5.03;;;3.90;98.40;;;;;;20914601;28;20597;-79
2023/03/15 03:25:55;;;;;;;8.93;4.60;;;4.00;98.30;;;;;;20912785;28;20257;-80
2023/03/15 03:36:00;;;;;;;10.63;4.87;;;4.00;98.30;;;;;;20912520;28;20240;-80
2023/03/15 03:46:03;;;;;;;8.47;4.00;;;;;;;;;;20911915;28;20269;-81
2023/03/15 03:56:06;;;;;;;8.00;3.57;;;3.80;98.00;;;;;;20912719;28;20235;-81
2023/03/15 04:06:08;;;;;;;9.30;3.60;;;;;;;;;;20928071;28;20725;-79
2023/03/15 04:16:11;;;;;;;12.37;3.53;;;;;;;;;;20927245;28;20789;-76
2023/03/15 04:26:13;;;;;;;4.67;2.53;;;3.70;97.70;;;;;;20926400;28;20204;-76
2023/03/15 04:36:17;;;;;;;9.23;3.13;;;;;;;;;;20925897;28;20247;-77
2023/03/15 04:46:19;;;;;;;7.70;3.23;;;;;;;;;;20925122;28;20203;-77
2023/03/15 04:56:24;;;;;;;9.27;2.63;;;;;;;;;;20924320;28;20235;-78
2023/03/15 05:06:26;;;;;;;10.73;3.43;;;3.60;97.20;;;;;;20923193;28;20601;-78
2023/03/15 05:16:28;;;;;;;6.03;2.53;;;;;;;;;;20922419;28;20239;-78
2023/03/15 05:26:30;;;;;;;15.30;3.43;;;3.60;96.90;;;;;;20921776;28;20208;-76
2023/03/15 05:36:33;;;;;;;8.77;3.60;;;4.10;96.90;;;;;;20920788;28;20248;-76
2023/03/15 05:46:34;;;;;;;9.70;3.40;;;3.70;96.60;;;;;;20919840;28;20273;-75
2023/03/15 05:56:36;;;;;;;8.70;3.67;;;;;;;;;;20918053;28;20231;-75
2023/03/15 06:06:38;;;;;;;7.67;3.70;;;;;;;;;;20896552;28;20733;-74
2023/03/15 06:16:40;;;;;;;9.10;4.13;;;4.20;95.80;;;;;;20917226;28;20243;-74
2023/03/15 06:26:42;;;;;;;8.50;3.57;;;;;;;;;;20915744;28;20212;-82
2023/03/15 06:36:44;;;;;;;7.73;3.87;;;4.40;95.10;;;;;;20940682;28;20267;-82
2023/03/15 06:46:46;;;;;;;10.20;3.97;;;;;;;;;;20908472;28;20200;-83
2023/03/15 06:56:48;;;;;;;13.93;4.10;;;;;;;;;;20914600;28;20365;-77
2023/03/15 07:06:50;;;;;;;7.53;3.47;;;4.60;94.80;;;;;;20914119;28;20266;-80
2023/03/15 07:16:52;;;;;;;11.53;3.70;;;;;;;;;;20912744;28;20278;-79
2023/03/15 07:26:55;;;;;;;6.53;3.33;;;;;;;;;;20911758;28;20212;-79
2023/03/15 07:36:57;;;;;;;11.03;3.70;;;5.30;93.60;;;;;;20912123;28;20686;-79
2023/03/15 07:46:58;;;;;;;8.77;3.47;;;5.20;93.50;;;;;;20911335;28;20208;-75
2023/03/15 07:57:01;;;;;;;12.27;3.20;;;;;;;;;;20910806;28;20246;-80
2023/03/15 08:16:01;;;;;;;13.87;4.47;;;4.80;94.70;;;;;;21236592;27;20561;-78
2023/03/15 08:26:03;;;;;;;8.30;4.43;;;4.60;95.40;;;;;;21235259;28;20213;-74
2023/03/15 08:36:05;;;;;;;8.20;4.10;;;4.50;96.10;;;;;;21234135;28;20206;-72
2023/03/15 08:46:07;;;;;;;8.13;3.63;;;4.50;96.40;;;;;;21233744;28;20664;-72
2023/03/15 08:56:09;;;;;;;7.73;3.40;;;4.90;96.60;;;;;;21233071;28;20209;-73
2023/03/15 09:06:10;;;;;;;6.90;3.20;;;5.00;96.40;;;;;;21232167;28;20202;-76
2023/03/15 09:18:30;;;;;;;10.07;3.20;;;5.30;96.70;;;;;;21494695;27;20538;-72
2023/03/15 09:28:33;;;;;;;12.07;5.23;;;;;;;;;;21406859;27;20204;-71
2023/03/15 09:38:35;;;;;;;6.63;2.90;;;5.40;96.90;;;;;;21387820;27;20224;-72
2023/03/15 09:48:51;;;;;;;7.77;2.60;;;5.80;96.90;;;;;;21405183;27;20213;-74
2023/03/15 09:58:58;;;;;;;6.43;2.60;;;6.00;96.50;;;;;;21404057;27;20268;-74
2023/03/15 10:09:11;;;;;;;7.40;2.23;;;5.80;96.20;;;;;;21403971;27;20228;-74
2023/03/15 10:19:16;;;;;;;4.30;2.07;;;5.30;96.10;;;;;;21403528;27;20232;-78
2023/03/15 10:29:22;;;;;;;5.70;2.07;;;6.20;96.00;;;;;;21346138;27;20222;-74
2023/03/15 10:39:24;;;;;;;3.77;2.13;;;6.20;95.90;;;;;;21345339;27;20286;-79
2023/03/15 10:49:34;;;;;;;4.80;2.07;;;6.20;96.00;;;;;;21350445;27;20235;-73
2023/03/15 10:59:36;;;;;;;9.27;2.13;;;5.90;95.90;;;;;;21347534;27;20237;-76
2023/03/15 11:09:40;;;;;;;4.70;2.17;;;5.80;96.00;;;;;;21343364;27;20321;-79
2023/03/15 11:19:52;;;;;;;4.57;2.50;;;5.50;96.00;;;;;;21341598;27;20277;-81
2023/03/15 11:29:57;;;;;;;3.00;2.00;;;6.20;96.20;;;;;;21323538;27;20208;-74
2023/03/15 11:40:02;;;;;;;3.13;2.37;;;6.20;96.10;;;;;;21339231;27;20593;-75
2023/03/15 11:50:14;;;;;;;4.00;2.70;;;6.40;96.00;;;;;;21338813;27;20201;-74
2023/03/15 12:00:30;;;;;;;5.33;2.90;;;6.20;95.60;;;;;;21336666;27;20233;-75
